Time;durP1;ratioP1;P1;durP2;ratioP2;P2;SDS_P1;SDS_P2;PMS_P1;PMS_P2;Temp;Humidity;BMP_temperature;BMP_pressure;BME280_temperature;BME280_humidity;BME280_pressure;Samples;Min_cycle;Max_cycle;Signal;HPM_P1;HPM_P2
2022/03/08 00:02:07;;;;;;;17.00;11.30;;;6.50;50.50;;;;;;5013534;28;20034;-73
2022/03/08 00:04:33;;;;;;;17.00;11.75;;;6.50;50.40;;;;;;5013680;28;20505;-75
2022/03/08 00:07:00;;;;;;;16.65;11.55;;;6.50;51.10;;;;;;4995880;28;20075;-74
2022/03/08 00:09:26;;;;;;;17.05;11.80;;;6.60;50.80;;;;;;5013764;28;20022;-73
2022/03/08 00:11:52;;;;;;;19.98;12.43;;;6.60;50.70;;;;;;5013840;28;20049;-73
2022/03/08 00:14:18;;;;;;;17.20;11.88;;;6.50;50.40;;;;;;5013576;28;20026;-74
2022/03/08 00:16:44;;;;;;;16.45;11.77;;;6.50;50.50;;;;;;5013448;28;20036;-78
2022/03/08 00:19:10;;;;;;;18.05;11.60;;;6.50;50.40;;;;;;5013488;28;20139;-76
2022/03/08 00:21:35;;;;;;;18.58;12.55;;;6.50;50.70;;;;;;5013294;28;20030;-76
2022/03/08 00:24:01;;;;;;;16.13;10.95;;;6.50;50.70;;;;;;5013048;28;20029;-75
2022/03/08 00:26:27;;;;;;;17.92;11.55;;;6.50;50.70;;;;;;5013257;28;20509;-74
2022/03/08 00:28:54;;;;;;;16.02;10.75;;;6.50;50.60;;;;;;5013046;28;20071;-73
2022/03/08 00:31:19;;;;;;;20.23;11.90;;;6.50;50.40;;;;;;5013187;28;20030;-74
2022/03/08 00:33:45;;;;;;;17.08;11.57;;;6.50;50.40;;;;;;5013199;28;20438;-73
2022/03/08 00:36:11;;;;;;;17.52;11.63;;;6.40;50.10;;;;;;5013072;28;20177;-72
2022/03/08 00:38:37;;;;;;;14.80;10.75;;;6.40;50.40;;;;;;5012949;28;20037;-73
2022/03/08 00:41:03;;;;;;;14.73;10.32;;;6.40;50.40;;;;;;5012744;28;20088;-73
2022/03/08 00:43:28;;;;;;;14.90;10.48;;;6.40;50.40;;;;;;5013097;28;20395;-73
2022/03/08 00:45:55;;;;;;;15.80;11.27;;;6.40;50.50;;;;;;5012957;28;20102;-76
2022/03/08 00:48:21;;;;;;;15.25;11.15;;;6.40;50.20;;;;;;5012758;28;20026;-75
2022/03/08 00:50:47;;;;;;;18.95;12.18;;;6.30;50.30;;;;;;5012989;28;20440;-72
2022/03/08 00:53:12;;;;;;;15.77;11.70;;;6.30;50.40;;;;;;4995467;28;20064;-74
2022/03/08 00:55:38;;;;;;;18.45;11.35;;;6.20;50.40;;;;;;5013012;28;20471;-72
2022/03/08 00:58:06;;;;;;;17.70;10.68;;;6.10;50.20;;;;;;5012994;28;20074;-74
2022/03/08 01:00:34;;;;;;;18.67;11.65;;;6.20;50.50;;;;;;5012847;28;20158;-72
2022/03/08 01:03:00;;;;;;;18.98;11.63;;;6.10;50.30;;;;;;5012831;28;20034;-72
2022/03/08 01:05:27;;;;;;;17.63;11.13;;;6.10;50.40;;;;;;5013434;28;20141;-71
2022/03/08 01:07:53;;;;;;;19.38;12.18;;;6.10;50.50;;;;;;5013247;28;20061;-72
2022/03/08 01:10:21;;;;;;;15.10;10.90;;;6.10;50.40;;;;;;5014841;28;20061;-74
2022/03/08 01:12:49;;;;;;;16.73;11.07;;;6.10;50.30;;;;;;5013439;28;20129;-74
2022/03/08 01:15:16;;;;;;;16.58;10.32;;;6.10;50.40;;;;;;5013036;28;20090;-72
2022/03/08 01:17:44;;;;;;;15.85;11.43;;;6.10;50.40;;;;;;5013027;28;20029;-76
2022/03/08 01:20:11;;;;;;;19.70;10.73;;;6.20;50.40;;;;;;5012933;28;20360;-76
2022/03/08 01:22:37;;;;;;;14.73;10.35;;;6.20;50.30;;;;;;5012711;28;20457;-75
2022/03/08 01:25:04;;;;;;;16.08;10.60;;;6.10;50.20;;;;;;5012915;28;20034;-72
2022/03/08 01:27:30;;;;;;;15.48;10.80;;;6.10;50.60;;;;;;5012805;28;20030;-73
2022/03/08 01:29:56;;;;;;;15.23;10.80;;;6.10;50.50;;;;;;4994714;28;20057;-73
2022/03/08 01:32:22;;;;;;;16.00;10.48;;;6.00;50.40;;;;;;5012687;28;20018;-71
2022/03/08 01:34:47;;;;;;;19.27;11.95;;;6.00;50.30;;;;;;5013772;28;20022;-73
2022/03/08 01:37:13;;;;;;;14.98;11.02;;;5.90;50.10;;;;;;5016388;28;20029;-71
2022/03/08 01:39:39;;;;;;;16.30;10.80;;;5.90;50.40;;;;;;5016274;28;20491;-73
2022/03/08 01:42:12;;;;;;;14.45;10.43;;;5.90;50.40;;;;;;5016472;28;20484;-73
2022/03/08 01:44:42;;;;;;;15.73;11.98;;;5.90;50.90;;;;;;5016525;28;20079;-73
2022/03/08 01:47:11;;;;;;;15.73;10.75;;;5.90;50.20;;;;;;5016280;28;20128;-73
2022/03/08 01:49:37;;;;;;;14.85;10.30;;;5.80;50.10;;;;;;5016165;28;20033;-73
2022/03/08 01:52:03;;;;;;;16.25;10.10;;;5.80;50.20;;;;;;5016170;28;20030;-77
2022/03/08 01:54:29;;;;;;;15.30;11.10;;;5.80;50.30;;;;;;4998625;28;20032;-75
2022/03/08 01:56:55;;;;;;;13.65;10.02;;;5.80;49.90;;;;;;5016275;28;20026;-76
2022/03/08 01:59:20;;;;;;;14.88;10.57;;;5.80;50.00;;;;;;4998612;28;20502;-72
2022/03/08 02:01:46;;;;;;;16.85;10.52;;;5.80;50.00;;;;;;5015928;28;20022;-75
2022/03/08 02:04:12;;;;;;;14.40;9.75;;;5.70;49.80;;;;;;5016397;28;20577;-72
2022/03/08 02:06:38;;;;;;;19.45;10.88;;;5.70;50.00;;;;;;5016577;28;20072;-74
2022/03/08 02:09:04;;;;;;;15.23;10.70;;;5.70;49.90;;;;;;5016258;28;20336;-75
2022/03/08 02:11:31;;;;;;;14.95;10.23;;;5.70;49.90;;;;;;5016662;28;20026;-75
2022/03/08 02:13:57;;;;;;;17.90;10.75;;;5.70;50.20;;;;;;5027567;28;20034;-72
2022/03/08 02:16:23;;;;;;;14.82;10.82;;;5.80;50.10;;;;;;5027081;28;20084;-72
2022/03/08 02:18:49;;;;;;;15.35;10.48;;;5.80;50.10;;;;;;5024059;28;20153;-73
2022/03/08 02:21:14;;;;;;;14.98;10.23;;;5.80;50.10;;;;;;5015946;28;20033;-74
2022/03/08 02:23:40;;;;;;;16.40;10.70;;;5.70;49.90;;;;;;5015697;28;20065;-73
2022/03/08 02:26:06;;;;;;;15.05;10.18;;;5.70;50.00;;;;;;5015575;28;20030;-75
2022/03/08 02:28:32;;;;;;;15.57;11.38;;;5.70;50.00;;;;;;5015638;28;20586;-73
2022/03/08 02:30:58;;;;;;;18.17;10.70;;;5.70;50.10;;;;;;4997949;28;20026;-74
2022/03/08 02:33:23;;;;;;;15.63;10.63;;;5.60;50.00;;;;;;5015589;28;20389;-77
2022/03/08 02:35:49;;;;;;;16.67;10.63;;;5.60;50.10;;;;;;5015627;28;20026;-76
2022/03/08 02:38:15;;;;;;;16.00;10.88;;;5.70;50.00;;;;;;5014751;28;20096;-77
2022/03/08 02:40:43;;;;;;;14.00;10.32;;;5.60;49.70;;;;;;5015231;28;20085;-73
2022/03/08 02:43:10;;;;;;;14.75;10.35;;;5.60;49.90;;;;;;5015114;28;20046;-71
2022/03/08 02:45:37;;;;;;;16.85;10.32;;;5.70;49.80;;;;;;5015165;28;20125;-74
2022/03/08 02:48:03;;;;;;;14.43;10.25;;;5.70;49.90;;;;;;5014438;28;20113;-76
2022/03/08 02:50:29;;;;;;;15.85;10.65;;;5.70;50.30;;;;;;5014982;28;20026;-72
2022/03/08 02:52:56;;;;;;;15.13;10.10;;;5.70;50.10;;;;;;5014748;28;20036;-74
2022/03/08 02:55:28;;;;;;;15.80;11.00;;;5.70;50.10;;;;;;5014990;28;20595;-73
2022/03/08 02:57:56;;;;;;;15.57;10.60;;;5.70;50.80;;;;;;5014840;28;20026;-72
2022/03/08 03:00:23;;;;;;;14.85;10.55;;;5.70;50.20;;;;;;5014747;28;20025;-71
2022/03/08 03:02:49;;;;;;;15.15;10.98;;;5.60;49.80;;;;;;5014797;28;20068;-73
2022/03/08 03:05:15;;;;;;;15.80;10.70;;;5.50;49.50;;;;;;5014811;28;20018;-73
2022/03/08 03:07:41;;;;;;;15.55;11.10;;;5.40;49.90;;;;;;5014815;28;20105;-72
2022/03/08 03:10:10;;;;;;;15.35;10.80;;;5.40;49.80;;;;;;5014756;28;20022;-73
2022/03/08 03:12:36;;;;;;;15.45;10.98;;;5.30;49.70;;;;;;5014674;28;20123;-76
2022/03/08 03:15:04;;;;;;;17.30;11.43;;;5.30;49.80;;;;;;5014913;28;20471;-73
2022/03/08 03:17:30;;;;;;;16.70;11.07;;;5.30;49.90;;;;;;5014842;28;20040;-73
2022/03/08 03:19:55;;;;;;;15.95;11.45;;;5.30;49.60;;;;;;5014824;28;20022;-72
2022/03/08 03:22:21;;;;;;;17.73;11.20;;;5.30;49.70;;;;;;5014469;28;20117;-71
2022/03/08 03:24:47;;;;;;;18.08;10.80;;;5.30;49.80;;;;;;5014585;28;20026;-72
2022/03/08 03:27:13;;;;;;;16.75;11.20;;;5.40;49.70;;;;;;5014663;28;20475;-72
2022/03/08 03:29:38;;;;;;;18.65;11.98;;;5.40;50.00;;;;;;5014441;28;20424;-72
2022/03/08 03:32:04;;;;;;;16.60;11.18;;;5.40;49.80;;;;;;5014157;28;20030;-74
2022/03/08 03:34:30;;;;;;;16.90;11.40;;;5.40;50.00;;;;;;5014149;28;20038;-74
2022/03/08 03:36:56;;;;;;;16.02;11.65;;;5.40;49.70;;;;;;5014324;28;20104;-72
2022/03/08 03:39:21;;;;;;;16.92;11.88;;;5.30;49.50;;;;;;5014296;28;20483;-72
2022/03/08 03:41:47;;;;;;;16.90;11.50;;;5.30;49.50;;;;;;5014027;28;20034;-72
2022/03/08 03:44:13;;;;;;;15.98;11.38;;;5.20;49.50;;;;;;5014295;28;20116;-74
2022/03/08 03:46:39;;;;;;;19.83;11.73;;;5.20;49.60;;;;;;5014256;28;20029;-74
2022/03/08 03:49:04;;;;;;;19.95;11.90;;;5.10;49.70;;;;;;5013927;28;20065;-72
2022/03/08 03:51:30;;;;;;;15.77;11.52;;;5.20;49.80;;;;;;5013986;28;20022;-73
2022/03/08 03:53:56;;;;;;;17.60;11.63;;;5.20;49.80;;;;;;5014241;28;20030;-73
2022/03/08 03:56:21;;;;;;;16.08;11.63;;;5.20;49.80;;;;;;5013964;28;20466;-73
2022/03/08 03:58:47;;;;;;;17.48;12.05;;;5.10;49.60;;;;;;5012641;28;20030;-73
2022/03/08 04:01:13;;;;;;;18.10;11.63;;;5.10;49.80;;;;;;5013786;28;20061;-73
2022/03/08 04:03:38;;;;;;;18.95;11.98;;;5.10;50.00;;;;;;5013843;28;20045;-72
2022/03/08 04:06:04;;;;;;;16.20;11.75;;;5.20;50.00;;;;;;5013908;28;20018;-71
2022/03/08 04:08:30;;;;;;;16.17;11.18;;;5.20;50.00;;;;;;5013684;28;20541;-72
2022/03/08 04:10:55;;;;;;;16.25;11.80;;;5.20;49.80;;;;;;5013644;28;20037;-73
2022/03/08 04:13:21;;;;;;;16.40;12.00;;;5.30;50.00;;;;;;5013621;28;20077;-72
2022/03/08 04:15:47;;;;;;;16.70;11.55;;;5.30;49.60;;;;;;5013541;28;20397;-72
2022/03/08 04:18:14;;;;;;;17.42;11.23;;;5.30;49.60;;;;;;5013437;28;20022;-71
2022/03/08 04:20:40;;;;;;;16.58;11.77;;;5.30;49.60;;;;;;5013457;28;20038;-73
2022/03/08 04:23:06;;;;;;;17.85;11.93;;;5.30;49.50;;;;;;5013431;28;20434;-73
2022/03/08 04:25:31;;;;;;;17.35;11.23;;;5.30;49.60;;;;;;4995834;28;20026;-75
2022/03/08 04:27:57;;;;;;;17.05;11.82;;;5.30;49.40;;;;;;5013455;28;20079;-76
2022/03/08 04:30:23;;;;;;;18.80;12.68;;;5.30;50.10;;;;;;5013430;28;20072;-73
2022/03/08 04:32:52;;;;;;;18.70;12.05;;;5.30;49.70;;;;;;5013460;28;20029;-74
2022/03/08 04:35:19;;;;;;;19.02;12.55;;;5.30;49.70;;;;;;5013249;28;20022;-77
2022/03/08 04:37:44;;;;;;;18.52;12.48;;;5.20;49.20;;;;;;5013346;28;20057;-73
2022/03/08 04:40:11;;;;;;;18.05;12.73;;;5.20;49.30;;;;;;5012970;28;20042;-72
2022/03/08 04:42:38;;;;;;;18.65;13.63;;;5.10;49.10;;;;;;5012952;28;20025;-75
2022/03/08 04:45:04;;;;;;;21.70;13.25;;;5.10;49.10;;;;;;5013557;28;20030;-75
2022/03/08 04:47:30;;;;;;;18.63;12.98;;;5.10;49.50;;;;;;5013048;28;20029;-73
2022/03/08 04:49:56;;;;;;;20.80;13.68;;;5.00;49.20;;;;;;5012837;28;20395;-73
2022/03/08 04:52:21;;;;;;;19.83;12.90;;;5.00;49.30;;;;;;5013207;28;20025;-74
2022/03/08 04:54:48;;;;;;;21.42;13.85;;;5.00;49.10;;;;;;5013195;28;20033;-72
2022/03/08 04:57:15;;;;;;;21.60;13.00;;;5.10;50.60;;;;;;5012595;28;20025;-75
2022/03/08 04:59:42;;;;;;;20.42;13.68;;;5.00;50.40;;;;;;5012639;28;20026;-74
2022/03/08 05:02:08;;;;;;;18.98;13.25;;;5.00;50.60;;;;;;5012669;28;20088;-73
2022/03/08 05:04:33;;;;;;;20.92;14.55;;;5.00;50.00;;;;;;5012981;28;20030;-74
2022/03/08 05:06:59;;;;;;;19.92;13.25;;;5.00;49.90;;;;;;5013057;28;20026;-73
2022/03/08 05:09:25;;;;;;;24.52;13.48;;;5.00;50.10;;;;;;5012386;28;20058;-73
2022/03/08 05:11:50;;;;;;;20.80;13.63;;;4.90;50.20;;;;;;5012885;28;20057;-75
2022/03/08 05:14:16;;;;;;;25.05;14.48;;;5.00;50.30;;;;;;5012856;28;20030;-76
2022/03/08 05:16:41;;;;;;;18.67;13.05;;;5.00;50.20;;;;;;5012739;28;20022;-72
2022/03/08 05:19:07;;;;;;;21.08;13.75;;;5.00;50.00;;;;;;5012413;28;20451;-74
2022/03/08 05:21:33;;;;;;;18.95;13.00;;;5.00;50.00;;;;;;5012665;28;20038;-74
2022/03/08 05:23:59;;;;;;;17.42;12.15;;;5.00;49.90;;;;;;5012791;28;20030;-76
2022/03/08 05:26:24;;;;;;;18.50;12.77;;;4.90;49.60;;;;;;5012829;28;20022;-77
2022/03/08 05:28:50;;;;;;;20.50;13.40;;;5.00;49.60;;;;;;5012799;28;20533;-74
2022/03/08 05:31:16;;;;;;;21.63;12.80;;;4.90;49.50;;;;;;5012695;28;20072;-74
2022/03/08 05:33:41;;;;;;;18.85;12.38;;;4.90;49.40;;;;;;5012458;28;20208;-76
2022/03/08 05:36:07;;;;;;;22.67;12.45;;;4.90;49.10;;;;;;4995053;28;20372;-76
2022/03/08 05:38:33;;;;;;;22.17;13.65;;;4.90;49.00;;;;;;5012511;28;20037;-74
2022/03/08 05:40:59;;;;;;;19.45;13.02;;;4.90;49.00;;;;;;5013142;28;20050;-75
2022/03/08 05:43:26;;;;;;;21.65;12.70;;;4.90;48.90;;;;;;5013949;28;20093;-74
2022/03/08 05:45:52;;;;;;;19.55;12.15;;;4.90;48.50;;;;;;5012808;28;20030;-75
2022/03/08 05:48:18;;;;;;;19.52;12.75;;;4.90;48.60;;;;;;5012544;28;20030;-74
2022/03/08 05:50:43;;;;;;;21.52;12.27;;;4.90;48.50;;;;;;5012355;28;20422;-72
2022/03/08 05:53:09;;;;;;;16.38;10.90;;;4.90;48.10;;;;;;5012619;28;20025;-74
2022/03/08 05:55:35;;;;;;;17.38;11.30;;;4.90;47.80;;;;;;5012345;28;20030;-74
2022/03/08 05:58:00;;;;;;;17.63;11.25;;;4.90;47.50;;;;;;5012479;28;20022;-74
2022/03/08 06:00:27;;;;;;;21.15;12.02;;;4.80;47.50;;;;;;5012539;28;20037;-74
2022/03/08 06:02:53;;;;;;;17.25;12.10;;;4.80;47.40;;;;;;5012067;28;20034;-74
2022/03/08 06:05:18;;;;;;;18.13;11.05;;;4.80;48.00;;;;;;5012369;28;20105;-75
2022/03/08 06:07:44;;;;;;;22.90;11.98;;;4.80;47.30;;;;;;5012705;28;20569;-76
2022/03/08 06:10:10;;;;;;;20.23;12.13;;;4.80;47.30;;;;;;5012357;28;20026;-74
2022/03/08 06:12:36;;;;;;;19.25;11.90;;;4.80;47.30;;;;;;5012567;28;20037;-76
2022/03/08 06:15:04;;;;;;;17.35;11.30;;;4.90;47.30;;;;;;5012763;28;20084;-75
2022/03/08 06:17:30;;;;;;;22.27;11.70;;;4.80;47.20;;;;;;5013498;28;20037;-77
2022/03/08 06:19:56;;;;;;;16.83;11.45;;;4.80;47.00;;;;;;5013787;28;20034;-75
2022/03/08 06:22:21;;;;;;;19.95;11.32;;;4.80;46.90;;;;;;5026102;28;20034;-77
2022/03/08 06:24:47;;;;;;;16.40;10.32;;;4.90;46.80;;;;;;5033665;28;20133;-75
2022/03/08 06:27:13;;;;;;;17.70;10.27;;;5.00;46.70;;;;;;5020932;28;20030;-72
2022/03/08 06:29:39;;;;;;;15.07;9.73;;;5.00;46.10;;;;;;5015434;28;20080;-72
2022/03/08 06:32:06;;;;;;;18.80;10.30;;;5.10;45.60;;;;;;4997929;28;20471;-75
2022/03/08 06:34:32;;;;;;;19.65;10.57;;;5.10;45.30;;;;;;5015231;28;20045;-74
2022/03/08 06:36:57;;;;;;;18.85;10.02;;;5.20;45.20;;;;;;5015225;28;20026;-71
2022/03/08 06:39:23;;;;;;;19.63;9.88;;;5.30;45.00;;;;;;5015216;28;20132;-73
2022/03/08 06:41:49;;;;;;;16.17;8.73;;;5.30;45.00;;;;;;5015373;28;20471;-77
2022/03/08 06:44:15;;;;;;;19.92;10.15;;;5.40;44.60;;;;;;5015541;28;20045;-71
2022/03/08 06:46:41;;;;;;;20.33;10.85;;;5.40;44.60;;;;;;5015769;28;20030;-71
2022/03/08 06:49:08;;;;;;;17.90;9.82;;;5.60;44.80;;;;;;5015458;28;20174;-74
2022/03/08 06:51:35;;;;;;;15.32;9.80;;;5.60;44.60;;;;;;5015447;28;20476;-75
2022/03/08 06:54:00;;;;;;;15.73;9.85;;;5.80;44.80;;;;;;5014924;28;20384;-72
2022/03/08 06:56:29;;;;;;;17.05;9.57;;;5.90;44.30;;;;;;5015104;28;20034;-75
2022/03/08 06:58:54;;;;;;;15.57;8.60;;;6.00;44.00;;;;;;5014498;28;20041;-75
2022/03/08 07:01:20;;;;;;;15.95;8.98;;;6.00;43.30;;;;;;5014404;28;20032;-74
2022/03/08 07:03:46;;;;;;;20.00;8.80;;;6.00;43.40;;;;;;5014926;28;20065;-72
2022/03/08 07:06:11;;;;;;;13.43;8.32;;;6.00;43.40;;;;;;5015145;28;20037;-71
2022/03/08 07:08:37;;;;;;;13.63;7.85;;;6.20;43.30;;;;;;5015032;28;20034;-74
2022/03/08 07:11:04;;;;;;;16.25;7.97;;;6.30;43.00;;;;;;5014044;28;20033;-71
2022/03/08 07:13:30;;;;;;;13.52;8.00;;;6.40;42.70;;;;;;5014369;28;20028;-73
2022/03/08 07:15:56;;;;;;;15.35;7.15;;;6.50;42.70;;;;;;5014332;28;20036;-71
2022/03/08 07:18:23;;;;;;;14.18;7.03;;;6.60;42.70;;;;;;5014156;28;20021;-71
2022/03/08 07:20:53;;;;;;;11.70;7.40;;;6.70;42.30;;;;;;4997149;28;20026;-72
2022/03/08 07:23:19;;;;;;;11.85;7.28;;;6.80;42.60;;;;;;5014076;28;20121;-71
2022/03/08 07:25:44;;;;;;;14.40;7.30;;;7.00;42.90;;;;;;5014889;28;20497;-70
2022/03/08 07:28:10;;;;;;;17.05;6.65;;;7.20;41.80;;;;;;5014552;28;20037;-72
2022/03/08 07:30:36;;;;;;;10.63;6.78;;;7.10;41.00;;;;;;5014779;28;20096;-75
2022/03/08 07:33:02;;;;;;;12.77;6.03;;;7.20;40.80;;;;;;5014531;28;20033;-74
2022/03/08 07:35:28;;;;;;;10.95;6.20;;;7.20;40.30;;;;;;5014741;28;20026;-75
2022/03/08 07:37:53;;;;;;;12.38;6.55;;;7.20;39.70;;;;;;5014136;28;20030;-76
2022/03/08 07:40:19;;;;;;;11.13;6.45;;;7.30;39.80;;;;;;5014618;28;20411;-74
2022/03/08 07:42:45;;;;;;;9.60;5.75;;;7.30;40.00;;;;;;5013940;28;20112;-73
2022/03/08 07:45:11;;;;;;;14.02;6.03;;;7.50;40.00;;;;;;5014389;28;20029;-75
2022/03/08 07:47:36;;;;;;;15.77;5.93;;;7.60;39.90;;;;;;5014406;28;20030;-74
2022/03/08 07:50:03;;;;;;;10.60;5.45;;;7.70;40.30;;;;;;5014231;28;20392;-74
2022/03/08 07:52:29;;;;;;;12.98;6.07;;;7.70;39.70;;;;;;5014381;28;20018;-76
2022/03/08 07:54:55;;;;;;;13.52;5.97;;;7.70;39.00;;;;;;5014869;28;20029;-74
2022/03/08 07:57:20;;;;;;;14.52;6.00;;;7.80;39.10;;;;;;5014277;28;20029;-74
2022/03/08 07:59:46;;;;;;;13.35;5.78;;;7.70;38.10;;;;;;5013401;28;20156;-75
2022/03/08 08:02:12;;;;;;;18.92;6.00;;;7.70;37.90;;;;;;5013981;28;20399;-75
2022/03/08 08:04:37;;;;;;;11.18;5.80;;;7.60;37.90;;;;;;5013372;28;20030;-73
2022/03/08 08:07:04;;;;;;;14.38;5.43;;;7.60;37.30;;;;;;5014047;28;20459;-75
2022/03/08 08:09:29;;;;;;;10.45;5.80;;;7.50;37.40;;;;;;5014198;28;20026;-73
2022/03/08 08:11:55;;;;;;;9.10;5.25;;;7.50;36.90;;;;;;5013584;28;20029;-73
2022/03/08 08:14:21;;;;;;;10.13;5.15;;;7.40;37.00;;;;;;4995889;28;20367;-70
2022/03/08 08:16:46;;;;;;;13.38;5.30;;;7.40;37.00;;;;;;5013646;28;20025;-72
2022/03/08 08:19:12;;;;;;;11.77;5.63;;;7.40;36.90;;;;;;5013295;28;20208;-73
2022/03/08 08:21:40;;;;;;;11.00;5.30;;;7.40;37.00;;;;;;4995776;28;20018;-71
2022/03/08 08:24:06;;;;;;;9.98;6.43;;;7.40;36.90;;;;;;5013685;28;20034;-72
2022/03/08 08:26:32;;;;;;;11.43;5.55;;;7.40;36.60;;;;;;5013887;28;20096;-70
2022/03/08 08:28:58;;;;;;;18.90;5.72;;;7.40;36.70;;;;;;5013756;28;20029;-71
2022/03/08 08:31:24;;;;;;;11.98;5.25;;;7.40;36.60;;;;;;5013847;28;20049;-74
2022/03/08 08:33:50;;;;;;;11.68;5.18;;;7.40;36.90;;;;;;5013824;28;20040;-72
2022/03/08 08:36:17;;;;;;;9.95;5.43;;;7.50;36.90;;;;;;5014116;28;20026;-71
2022/03/08 08:38:42;;;;;;;9.65;4.68;;;7.50;36.70;;;;;;5013702;28;20014;-73
2022/03/08 08:41:08;;;;;;;10.73;5.03;;;7.50;36.80;;;;;;4995583;28;20522;-72
2022/03/08 08:43:35;;;;;;;13.35;4.70;;;7.50;36.60;;;;;;5013396;28;20033;-72
2022/03/08 08:46:00;;;;;;;15.05;4.82;;;7.50;36.80;;;;;;5013031;28;20030;-72
2022/03/08 08:48:29;;;;;;;16.38;5.78;;;7.60;36.80;;;;;;5013517;28;20371;-75
2022/03/08 08:50:55;;;;;;;8.40;5.00;;;7.60;38.60;;;;;;5013228;28;20060;-73
2022/03/08 08:53:22;;;;;;;14.40;5.03;;;7.70;36.90;;;;;;5013423;28;20098;-72
2022/03/08 08:55:48;;;;;;;14.13;5.20;;;7.70;36.60;;;;;;5013540;28;20105;-72
2022/03/08 08:58:14;;;;;;;7.60;4.80;;;7.70;36.40;;;;;;5012884;28;20030;-73
2022/03/08 09:00:40;;;;;;;13.35;5.32;;;7.80;36.20;;;;;;5013213;28;20026;-74
2022/03/08 09:03:10;;;;;;;9.73;5.15;;;7.80;36.20;;;;;;5012847;28;20029;-71
2022/03/08 09:05:36;;;;;;;8.40;4.53;;;7.80;36.10;;;;;;5012897;28;20371;-70
2022/03/08 09:08:03;;;;;;;11.25;4.90;;;7.90;36.00;;;;;;5012700;28;20472;-75
2022/03/08 09:10:30;;;;;;;9.88;4.80;;;7.90;36.40;;;;;;5012750;28;20398;-74
2022/03/08 09:12:56;;;;;;;10.07;5.13;;;8.00;37.70;;;;;;5012815;28;20065;-72
2022/03/08 09:15:22;;;;;;;10.63;4.95;;;8.10;36.90;;;;;;5013104;28;20046;-73
2022/03/08 09:17:48;;;;;;;12.25;4.70;;;8.10;36.30;;;;;;5012974;28;20041;-71
2022/03/08 09:20:14;;;;;;;9.70;4.50;;;8.10;36.40;;;;;;5013415;28;20855;-71
2022/03/08 09:22:40;;;;;;;13.75;4.80;;;8.10;36.30;;;;;;5013179;28;20064;-72
2022/03/08 09:25:07;;;;;;;12.65;5.40;;;8.20;36.40;;;;;;4995242;28;20033;-73
2022/03/08 09:27:34;;;;;;;11.88;4.85;;;8.30;36.50;;;;;;5012887;28;20026;-71
2022/03/08 09:30:00;;;;;;;8.55;4.63;;;8.30;36.40;;;;;;5012880;28;20097;-74
2022/03/08 09:32:30;;;;;;;9.30;4.82;;;8.30;36.40;;;;;;5013525;28;20022;-76
2022/03/08 09:34:56;;;;;;;11.60;4.88;;;8.40;36.60;;;;;;4995277;28;20108;-71
2022/03/08 09:37:21;;;;;;;11.25;4.82;;;8.50;36.50;;;;;;4995344;28;20049;-72
2022/03/08 09:39:47;;;;;;;8.13;4.85;;;8.50;36.30;;;;;;5013290;28;20080;-73
2022/03/08 09:42:13;;;;;;;11.55;4.68;;;8.60;36.60;;;;;;5012878;28;20034;-74
2022/03/08 09:44:38;;;;;;;16.80;4.85;;;8.70;36.00;;;;;;5012942;28;20057;-73
2022/03/08 09:47:05;;;;;;;8.07;4.30;;;8.70;35.80;;;;;;5012991;28;20061;-75
2022/03/08 09:49:32;;;;;;;11.95;4.30;;;8.70;35.90;;;;;;5012571;28;20394;-73
2022/03/08 09:51:58;;;;;;;8.48;4.53;;;8.80;36.20;;;;;;5013001;28;20472;-75
2022/03/08 09:54:23;;;;;;;9.43;4.63;;;8.80;35.80;;;;;;5012411;28;20547;-73
2022/03/08 09:56:49;;;;;;;9.15;4.85;;;8.90;35.80;;;;;;5013712;28;20073;-71
2022/03/08 09:59:17;;;;;;;9.55;4.90;;;8.90;35.70;;;;;;5016507;28;20068;-72
2022/03/08 10:01:43;;;;;;;10.35;4.68;;;8.90;36.00;;;;;;5016670;28;20076;-73
2022/03/08 10:04:09;;;;;;;8.02;4.30;;;9.00;35.70;;;;;;5016509;28;20109;-73
2022/03/08 10:06:40;;;;;;;9.73;5.22;;;9.00;35.50;;;;;;5016282;28;20065;-73
2022/03/08 10:09:20;;;;;;;11.13;4.32;;;9.10;35.60;;;;;;5016293;28;20026;-72
2022/03/08 10:11:54;;;;;;;12.57;4.72;;;9.10;35.50;;;;;;5016242;28;20042;-71
2022/03/08 10:14:31;;;;;;;8.65;4.50;;;9.20;35.50;;;;;;5016532;28;20025;-73
2022/03/08 10:16:57;;;;;;;7.20;4.20;;;9.30;35.40;;;;;;5016584;28;20045;-72
2022/03/08 10:19:23;;;;;;;8.52;4.97;;;9.40;34.80;;;;;;5016090;28;20459;-71
2022/03/08 10:21:54;;;;;;;9.95;4.35;;;9.40;34.70;;;;;;5016357;28;20121;-72
2022/03/08 10:24:23;;;;;;;9.52;4.72;;;9.40;34.50;;;;;;5019102;28;20439;-72
2022/03/08 10:26:58;;;;;;;9.52;4.57;;;9.40;34.40;;;;;;5017820;28;20018;-76
2022/03/08 10:29:27;;;;;;;11.05;4.38;;;9.50;33.80;;;;;;5022955;28;20045;-73
2022/03/08 10:32:16;;;;;;;8.20;4.60;;;9.60;34.60;;;;;;5016511;28;20033;-72
2022/03/08 10:34:43;;;;;;;11.15;4.75;;;9.80;34.10;;;;;;5016096;28;20026;-73
2022/03/08 10:37:15;;;;;;;8.32;4.50;;;9.90;35.00;;;;;;5015967;28;20025;-71
2022/03/08 10:39:47;;;;;;;7.88;4.22;;;10.00;33.30;;;;;;5015493;28;20068;-73
2022/03/08 10:42:21;;;;;;;9.73;4.40;;;10.00;32.80;;;;;;5015302;28;20484;-72
2022/03/08 10:45:07;;;;;;;8.10;4.45;;;10.10;33.00;;;;;;5015399;28;20045;-71
2022/03/08 10:47:50;;;;;;;7.07;3.80;;;10.10;32.10;;;;;;5015620;28;20030;-73
2022/03/08 10:50:17;;;;;;;7.35;4.35;;;10.20;32.50;;;;;;5015329;28;20029;-72
2022/03/08 10:52:46;;;;;;;6.63;4.05;;;10.30;32.30;;;;;;5015741;28;20018;-72
2022/03/08 10:55:22;;;;;;;7.63;4.43;;;10.30;31.90;;;;;;5015307;28;20116;-73
2022/03/08 10:57:56;;;;;;;6.68;4.15;;;10.30;31.00;;;;;;5015445;28;20451;-72
2022/03/08 11:00:27;;;;;;;11.63;4.65;;;10.30;30.90;;;;;;5015510;28;20034;-73
2022/03/08 11:02:59;;;;;;;7.82;3.80;;;10.50;32.20;;;;;;5015307;28;20026;-74
2022/03/08 11:05:27;;;;;;;7.38;3.65;;;10.60;31.40;;;;;;5014984;28;20030;-74
2022/03/08 11:07:57;;;;;;;6.35;3.65;;;10.60;30.80;;;;;;5015779;28;20025;-73
2022/03/08 11:10:23;;;;;;;7.68;3.75;;;10.70;31.10;;;;;;5016322;28;20152;-75
2022/03/08 11:12:49;;;;;;;6.93;3.70;;;10.70;30.80;;;;;;5016455;28;20052;-72
2022/03/08 11:15:17;;;;;;;6.35;3.35;;;10.80;31.10;;;;;;5014986;28;20026;-73
2022/03/08 11:17:45;;;;;;;5.85;3.20;;;10.90;30.70;;;;;;5015506;28;20097;-74
2022/03/08 11:20:12;;;;;;;4.70;2.55;;;11.00;30.40;;;;;;5014641;28;20034;-75
2022/03/08 11:22:39;;;;;;;5.25;2.35;;;11.00;29.10;;;;;;5014969;28;20030;-73
2022/03/08 11:25:08;;;;;;;7.53;3.10;;;11.00;28.60;;;;;;5015119;28;20049;-73
2022/03/08 11:27:35;;;;;;;7.15;2.80;;;11.00;28.50;;;;;;5014470;28;20045;-75
2022/03/08 11:30:02;;;;;;;5.97;3.00;;;11.00;28.30;;;;;;5014663;28;20026;-73
2022/03/08 11:32:35;;;;;;;6.10;2.47;;;11.00;28.30;;;;;;5014299;28;20079;-75
2022/03/08 11:35:03;;;;;;;5.68;3.10;;;11.10;28.10;;;;;;5014614;28;20125;-75
2022/03/08 11:37:34;;;;;;;7.03;2.30;;;11.10;27.70;;;;;;5014663;28;20401;-77
2022/03/08 11:40:14;;;;;;;5.20;2.60;;;11.10;27.90;;;;;;5014461;28;20046;-73
2022/03/08 11:42:45;;;;;;;7.63;3.17;;;11.20;27.90;;;;;;5014738;28;20038;-72
2022/03/08 11:45:20;;;;;;;5.10;2.50;;;11.20;27.90;;;;;;5014771;28;20032;-75
2022/03/08 11:47:56;;;;;;;4.28;2.40;;;11.20;26.30;;;;;;5014591;28;20026;-74
2022/03/08 11:50:44;;;;;;;5.18;2.58;;;11.30;27.60;;;;;;5014745;28;20030;-73
2022/03/08 11:53:24;;;;;;;24.77;2.90;;;11.30;26.80;;;;;;5014342;28;20026;-74
2022/03/08 11:55:56;;;;;;;6.93;2.88;;;11.40;28.00;;;;;;5014361;28;20144;-72
2022/03/08 11:58:40;;;;;;;8.82;3.53;;;11.60;27.20;;;;;;5014217;28;20061;-72
2022/03/08 12:01:06;;;;;;;6.25;2.90;;;11.60;27.90;;;;;;5014037;28;20095;-72
2022/03/08 12:03:36;;;;;;;6.65;2.97;;;11.50;27.30;;;;;;5013826;28;20489;-71
2022/03/08 12:06:08;;;;;;;5.28;3.10;;;11.50;27.10;;;;;;5013932;28;20037;-72
2022/03/08 12:08:33;;;;;;;7.78;3.03;;;11.60;25.70;;;;;;5014124;28;20049;-72
2022/03/08 12:11:05;;;;;;;6.35;2.80;;;11.60;26.90;;;;;;5014457;28;20026;-72
2022/03/08 12:13:33;;;;;;;6.28;3.63;;;11.60;25.60;;;;;;5014203;28;20022;-73
2022/03/08 12:16:09;;;;;;;7.03;3.58;;;11.60;27.00;;;;;;5014238;28;20050;-73
2022/03/08 12:18:41;;;;;;;20.10;3.67;;;11.70;26.90;;;;;;5013415;28;20425;-73
2022/03/08 12:21:19;;;;;;;8.65;3.55;;;11.60;26.80;;;;;;5013568;28;20022;-72
2022/03/08 12:23:59;;;;;;;7.50;3.83;;;11.60;25.60;;;;;;5013606;28;20466;-72
2022/03/08 12:26:48;;;;;;;6.80;3.50;;;11.70;25.70;;;;;;5013496;28;20034;-71
2022/03/08 12:29:20;;;;;;;5.65;3.35;;;11.70;25.60;;;;;;5013948;28;20175;-73
2022/03/08 12:31:58;;;;;;;6.55;3.50;;;11.80;27.20;;;;;;5014003;28;20033;-74
2022/03/08 12:34:35;;;;;;;7.68;3.83;;;11.80;26.50;;;;;;5013513;28;20045;-73
2022/03/08 12:37:10;;;;;;;10.07;3.55;;;11.80;25.50;;;;;;5013821;28;20368;-73
2022/03/08 12:40:01;;;;;;;7.47;3.33;;;11.80;25.60;;;;;;5013297;28;20085;-75
2022/03/08 12:42:36;;;;;;;7.78;4.22;;;11.90;25.80;;;;;;5013630;28;20119;-72
2022/03/08 12:45:10;;;;;;;11.48;4.00;;;11.80;27.90;;;;;;5013954;28;20073;-73